Time;durP1;ratioP1;P1;durP2;ratioP2;P2;SDS_P1;SDS_P2;PMS_P1;PMS_P2;Temp;Humidity;BMP_temperature;BMP_pressure;BME280_temperature;BME280_humidity;BME280_pressure;Samples;Min_cycle;Max_cycle;Signal;HPM_P1;HPM_P2
2021/01/12 00:00:26;;;;;;;15.50;10.70;;;;;;;;;;5077706;28;20486;-73
2021/01/12 00:02:55;;;;;;;13.40;9.70;;;;;;;;;;5077417;28;20491;-73
2021/01/12 00:05:22;;;;;;;8.47;7.00;;;;;;;;;;5077626;28;20453;-73
2021/01/12 00:07:50;;;;;;;10.80;7.20;;;;;;;;;;5077349;28;20831;-73
2021/01/12 00:10:19;;;;;;;15.10;10.73;;;;;;;;;;5077137;28;20449;-73
2021/01/12 00:12:50;;;;;;;11.23;8.20;;;;;;;;;;5077275;28;20459;-73
2021/01/12 00:15:17;;;;;;;8.50;5.87;;;;;;;;;;5077862;28;20477;-73
2021/01/12 00:17:45;;;;;;;10.87;7.23;;;;;;;;;;5077389;28;20493;-73
2021/01/12 00:20:14;;;;;;;8.13;7.03;;;;;;;;;;5077181;28;20481;-73
2021/01/12 00:22:41;;;;;;;10.50;8.83;;;;;;;;;;5077569;28;20492;-73
2021/01/12 00:25:09;;;;;;;12.70;9.60;;;;;;;;;;5077449;28;20544;-73
2021/01/12 00:27:36;;;;;;;10.10;7.50;;;;;;;;;;5077439;28;20960;-73
2021/01/12 00:30:04;;;;;;;13.30;9.83;;;;;;;;;;5077138;28;20448;-74
2021/01/12 00:32:32;;;;;;;15.10;9.73;;;;;;;;;;5078120;28;20483;-73
2021/01/12 00:34:59;;;;;;;12.63;8.57;;;;;;;;;;5077440;28;20477;-73
2021/01/12 00:37:28;;;;;;;12.70;9.90;;;;;;;;;;5077229;28;20893;-73
2021/01/12 00:39:55;;;;;;;11.50;7.90;;;;;;;;;;5077342;28;20454;-73
2021/01/12 00:42:23;;;;;;;11.13;7.40;;;;;;;;;;5077162;28;20465;-73
2021/01/12 00:44:51;;;;;;;13.20;10.90;;;;;;;;;;5077330;28;20452;-73
2021/01/12 00:47:23;;;;;;;12.47;8.77;;;;;;;;;;5077309;28;20558;-73
2021/01/12 00:49:50;;;;;;;11.00;8.80;;;;;;;;;;5076800;28;21228;-73
2021/01/12 00:52:18;;;;;;;11.30;8.93;;;;;;;;;;5076549;28;20806;-73
2021/01/12 00:54:46;;;;;;;12.40;8.77;;;;;;;;;;5077337;28;20456;-73
2021/01/12 00:57:14;;;;;;;15.57;10.73;;;;;;;;;;5076715;28;20794;-73
2021/01/12 00:59:45;;;;;;;13.20;10.43;;;;;;;;;;5076224;28;20565;-73
2021/01/12 01:02:13;;;;;;;8.87;7.60;;;;;;;;;;5076747;28;20457;-73
2021/01/12 01:04:40;;;;;;;11.53;8.40;;;;;;;;;;5076223;28;20552;-74
2021/01/12 01:07:08;;;;;;;11.77;9.17;;;;;;;;;;5076744;28;20547;-73
2021/01/12 01:09:35;;;;;;;12.10;9.00;;;;;;;;;;5076641;28;20510;-73
2021/01/12 01:12:04;;;;;;;12.40;9.97;;;;;;;;;;5076830;28;20907;-73
2021/01/12 01:14:32;;;;;;;11.27;7.53;;;;;;;;;;5076782;28;20807;-73
2021/01/12 01:16:59;;;;;;;9.37;6.83;;;;;;;;;;5076592;28;20905;-73
2021/01/12 01:19:26;;;;;;;10.73;8.60;;;;;;;;;;5076499;28;20449;-73
2021/01/12 01:21:54;;;;;;;9.93;6.23;;;;;;;;;;5076468;28;20517;-73
2021/01/12 01:24:21;;;;;;;9.10;6.60;;;;;;;;;;5076000;28;20488;-73
2021/01/12 01:26:49;;;;;;;8.77;6.47;;;;;;;;;;5076040;28;20901;-73
2021/01/12 01:29:17;;;;;;;7.67;5.97;;;;;;;;;;5076722;28;20551;-73
2021/01/12 01:31:45;;;;;;;7.07;5.30;;;;;;;;;;5076070;28;20461;-73
2021/01/12 01:34:12;;;;;;;12.10;9.03;;;;;;;;;;5076054;28;20449;-73
2021/01/12 01:36:40;;;;;;;11.30;7.20;;;;;;;;;;5076599;28;20500;-73
2021/01/12 01:39:07;;;;;;;11.17;8.90;;;;;;;;;;5077328;28;20453;-73
2021/01/12 01:41:35;;;;;;;11.03;7.70;;;;;;;;;;5075925;28;20879;-73
2021/01/12 01:44:03;;;;;;;7.80;6.03;;;;;;;;;;5077637;28;20457;-73
2021/01/12 01:46:31;;;;;;;8.40;6.53;;;;;;;;;;5076327;28;20495;-73
2021/01/12 01:48:59;;;;;;;8.53;5.83;;;;;;;;;;5076467;28;20456;-73
2021/01/12 01:51:26;;;;;;;10.50;7.03;;;;;;;;;;5076254;28;20469;-74
2021/01/12 01:53:55;;;;;;;8.63;5.40;;;;;;;;;;5076306;28;20878;-73
2021/01/12 01:56:26;;;;;;;11.33;7.50;;;;;;;;;;5075771;28;20483;-73
2021/01/12 01:58:54;;;;;;;9.20;6.83;;;;;;;;;;5076697;28;20464;-74
2021/01/12 02:01:22;;;;;;;8.30;6.27;;;;;;;;;;5076197;28;20538;-74
2021/01/12 02:04:00;;;;;;;8.40;6.90;;;;;;;;;;5075329;28;20453;-73
2021/01/12 02:06:32;;;;;;;10.87;7.83;;;;;;;;;;5076044;28;20471;-73
2021/01/12 02:09:02;;;;;;;8.07;5.77;;;;;;;;;;5075698;28;20472;-74
2021/01/12 02:11:32;;;;;;;7.10;5.20;;;;;;;;;;5075566;28;20526;-73
2021/01/12 02:14:02;;;;;;;6.67;5.00;;;;;;;;;;5075503;28;20480;-74
2021/01/12 02:16:30;;;;;;;6.27;4.53;;;;;;;;;;5076276;28;20838;-73
2021/01/12 02:19:00;;;;;;;10.77;7.83;;;;;;;;;;5076154;28;20848;-73
2021/01/12 02:21:28;;;;;;;8.20;6.13;;;;;;;;;;5076276;28;20530;-73
2021/01/12 02:23:56;;;;;;;6.20;4.80;;;;;;;;;;5075390;28;20551;-73
2021/01/12 02:26:25;;;;;;;5.63;4.30;;;;;;;;;;5075845;28;20736;-73
2021/01/12 02:28:56;;;;;;;9.67;6.80;;;;;;;;;;5076048;28;20460;-74
2021/01/12 02:31:24;;;;;;;10.40;6.87;;;;;;;;;;5075094;28;20484;-73
2021/01/12 02:33:52;;;;;;;12.10;7.60;;;;;;;;;;5075868;28;20448;-73
2021/01/12 02:36:21;;;;;;;8.97;6.40;;;;;;;;;;5074327;28;20551;-73
2021/01/12 02:38:49;;;;;;;11.00;7.37;;;;;;;;;;5075734;28;20456;-74
2021/01/12 02:41:18;;;;;;;7.97;5.37;;;;;;;;;;5075552;28;20860;-73
2021/01/12 02:43:46;;;;;;;7.47;6.10;;;;;;;;;;5075998;28;20909;-73
2021/01/12 02:46:15;;;;;;;9.57;7.17;;;;;;;;;;5075759;28;20469;-73
2021/01/12 02:48:42;;;;;;;9.43;7.10;;;;;;;;;;5075628;28;20503;-73
2021/01/12 02:51:10;;;;;;;7.50;5.97;;;;;;;;;;5075588;28;20457;-73
2021/01/12 02:53:38;;;;;;;9.10;6.20;;;;;;;;;;5077098;28;20518;-73
2021/01/12 02:56:06;;;;;;;9.47;6.13;;;;;;;;;;5078804;28;20460;-73
2021/01/12 02:58:34;;;;;;;9.03;6.93;;;;;;;;;;5078810;28;20476;-73
2021/01/12 03:01:04;;;;;;;6.80;5.77;;;;;;;;;;5079263;28;20488;-73
2021/01/12 03:03:31;;;;;;;4.50;3.60;;;;;;;;;;5077979;28;20507;-73
2021/01/12 03:05:59;;;;;;;8.57;6.20;;;;;;;;;;5079380;28;20959;-72
2021/01/12 03:08:26;;;;;;;12.80;6.50;;;;;;;;;;5078764;28;20481;-73
2021/01/12 03:10:53;;;;;;;12.03;5.97;;;;;;;;;;5079127;28;20551;-73
2021/01/12 03:13:21;;;;;;;7.27;5.80;;;;;;;;;;5078771;28;20445;-73
2021/01/12 03:15:50;;;;;;;11.87;6.40;;;;;;;;;;5078718;28;20445;-72
2021/01/12 03:18:17;;;;;;;7.60;5.10;;;;;;;;;;5078861;28;20559;-73
2021/01/12 03:20:44;;;;;;;8.00;6.57;;;;;;;;;;5079160;28;20552;-73
2021/01/12 03:23:12;;;;;;;8.43;4.93;;;;;;;;;;5079067;28;20453;-73
2021/01/12 03:25:39;;;;;;;10.27;6.33;;;;;;;;;;5078576;28;20536;-73
2021/01/12 03:28:07;;;;;;;7.90;5.53;;;;;;;;;;5078654;28;20445;-73
2021/01/12 03:30:35;;;;;;;9.63;6.33;;;;;;;;;;5078976;28;20450;-73
2021/01/12 03:33:03;;;;;;;7.37;5.47;;;;;;;;;;5077936;28;20482;-74
2021/01/12 03:35:33;;;;;;;8.57;6.17;;;;;;;;;;5078382;28;20479;-74
2021/01/12 03:38:01;;;;;;;8.33;6.40;;;;;;;;;;5078753;28;20742;-73
2021/01/12 03:40:28;;;;;;;7.60;6.10;;;;;;;;;;5079106;28;20525;-73
2021/01/12 03:42:56;;;;;;;8.60;6.10;;;;;;;;;;5078431;28;20465;-73
2021/01/12 03:45:24;;;;;;;8.77;6.03;;;;;;;;;;5078851;28;20445;-74
2021/01/12 03:47:51;;;;;;;11.33;7.00;;;;;;;;;;5078894;28;20547;-73
2021/01/12 03:50:20;;;;;;;7.00;4.77;;;;;;;;;;5078737;28;20572;-73
2021/01/12 03:52:47;;;;;;;6.57;4.33;;;;;;;;;;5078693;28;20457;-73
2021/01/12 03:55:15;;;;;;;6.60;5.20;;;;;;;;;;5078133;28;20580;-73
2021/01/12 03:57:42;;;;;;;7.23;5.13;;;;;;;;;;5078597;28;20583;-74
2021/01/12 04:00:10;;;;;;;9.20;6.07;;;;;;;;;;5078193;28;20552;-74
2021/01/12 04:02:38;;;;;;;7.43;5.17;;;;;;;;;;5077524;28;20469;-74
2021/01/12 04:05:06;;;;;;;8.43;4.87;;;;;;;;;;5077461;28;20464;-73
2021/01/12 04:07:34;;;;;;;7.17;5.83;;;;;;;;;;5078124;28;20487;-73
2021/01/12 04:10:02;;;;;;;9.80;6.67;;;;;;;;;;5077886;28;20540;-73
2021/01/12 04:12:31;;;;;;;6.17;5.07;;;;;;;;;;5080972;28;20444;-74
2021/01/12 04:14:58;;;;;;;7.20;6.13;;;;;;;;;;5078416;28;20572;-73
2021/01/12 04:17:25;;;;;;;10.00;5.87;;;;;;;;;;5077357;28;20515;-73
2021/01/12 04:19:53;;;;;;;7.00;4.80;;;;;;;;;;5076228;28;20908;-73
2021/01/12 04:22:21;;;;;;;6.80;4.87;;;;;;;;;;5077790;28;20471;-73
2021/01/12 04:24:51;;;;;;;7.03;5.50;;;;;;;;;;5077893;28;20946;-73
2021/01/12 04:27:18;;;;;;;7.37;4.70;;;;;;;;;;5077653;28;20457;-73
2021/01/12 04:29:46;;;;;;;7.63;5.83;;;;;;;;;;5077259;28;20457;-73
2021/01/12 04:32:13;;;;;;;7.53;3.53;;;;;;;;;;5077796;28;20464;-73
2021/01/12 04:34:41;;;;;;;8.57;5.67;;;;;;;;;;5076168;28;20449;-73
2021/01/12 04:37:08;;;;;;;7.77;5.10;;;;;;;;;;5077295;28;20916;-73
2021/01/12 04:39:35;;;;;;;4.00;3.13;;;;;;;;;;5077787;28;20453;-73
2021/01/12 04:42:04;;;;;;;8.03;4.77;;;;;;;;;;5077348;28;20492;-74
2021/01/12 04:44:31;;;;;;;8.03;5.50;;;;;;;;;;5077111;28;20449;-74
2021/01/12 04:46:59;;;;;;;5.30;4.30;;;;;;;;;;5077124;28;20463;-74
2021/01/12 04:49:27;;;;;;;6.83;5.63;;;;;;;;;;5076817;28;20445;-74
2021/01/12 04:51:54;;;;;;;5.17;3.80;;;;;;;;;;5077412;28;21031;-74
2021/01/12 04:54:21;;;;;;;7.83;5.33;;;;;;;;;;5076923;28;20449;-74
2021/01/12 04:56:49;;;;;;;6.63;5.90;;;;;;;;;;5076703;28;20551;-74
2021/01/12 04:59:26;;;;;;;6.80;5.10;;;;;;;;;;5077319;28;20463;-74
2021/01/12 05:01:54;;;;;;;7.90;5.73;;;;;;;;;;5077474;28;20789;-74
2021/01/12 05:04:21;;;;;;;6.77;4.57;;;;;;;;;;5076718;28;20449;-73
2021/01/12 05:06:49;;;;;;;7.50;5.50;;;;;;;;;;5076328;28;20452;-73
2021/01/12 05:09:21;;;;;;;8.13;6.20;;;;;;;;;;5076152;28;20471;-73
2021/01/12 05:11:48;;;;;;;7.23;4.97;;;;;;;;;;5075698;28;20585;-74
2021/01/12 05:14:16;;;;;;;7.23;5.00;;;;;;;;;;5074523;28;20445;-73
2021/01/12 05:16:49;;;;;;;7.00;4.70;;;;;;;;;;5075947;28;20860;-73
2021/01/12 05:19:20;;;;;;;6.50;4.77;;;;;;;;;;5086739;28;21016;-73
2021/01/12 05:21:48;;;;;;;6.47;4.30;;;;;;;;;;5077170;28;20496;-73
2021/01/12 05:24:18;;;;;;;6.73;3.90;;;;;;;;;;5077110;28;20483;-73
2021/01/12 05:26:46;;;;;;;6.67;4.93;;;;;;;;;;5076326;28;20771;-73
2021/01/12 05:29:14;;;;;;;9.40;6.00;;;;;;;;;;5076234;28;20547;-73
2021/01/12 05:31:48;;;;;;;6.07;3.90;;;;;;;;;;5076513;28;20449;-73
2021/01/12 05:34:17;;;;;;;7.63;4.73;;;;;;;;;;5076757;28;20425;-74
2021/01/12 05:36:49;;;;;;;5.60;3.50;;;;;;;;;;5079039;28;20481;-73
2021/01/12 05:39:17;;;;;;;7.17;3.93;;;;;;;;;;5076870;28;20453;-73
2021/01/12 05:41:46;;;;;;;6.30;4.40;;;;;;;;;;5075681;28;20457;-73
2021/01/12 05:44:16;;;;;;;5.50;3.73;;;;;;;;;;5056255;28;20718;-73
2021/01/12 05:46:45;;;;;;;5.97;4.30;;;;;;;;;;5056214;28;20452;-73
2021/01/12 05:49:13;;;;;;;5.50;3.63;;;;;;;;;;5056051;28;20461;-73
2021/01/12 05:51:45;;;;;;;4.80;3.70;;;;;;;;;;5055088;28;20569;-73
2021/01/12 05:54:30;;;;;;;5.97;4.50;;;;;;;;;;5055794;28;20446;-73
2021/01/12 05:56:58;;;;;;;4.03;3.30;;;;;;;;;;5042705;28;20489;-73
2021/01/12 05:59:27;;;;;;;5.33;4.20;;;;;;;;;;5055604;28;20453;-73
2021/01/12 06:01:57;;;;;;;4.33;3.50;;;;;;;;;;5054367;28;20706;-73
2021/01/12 06:04:25;;;;;;;6.87;4.87;;;;;;;;;;5055414;28;20456;-73
2021/01/12 06:06:54;;;;;;;6.40;4.27;;;;;;;;;;5055042;28;20454;-73
2021/01/12 06:09:23;;;;;;;6.37;4.50;;;;;;;;;;5054934;28;20442;-73
2021/01/12 06:11:52;;;;;;;4.73;4.03;;;;;;;;;;5054746;28;20493;-73
2021/01/12 06:14:21;;;;;;;7.00;4.03;;;;;;;;;;5055187;28;20446;-73
2021/01/12 06:16:49;;;;;;;6.30;4.03;;;;;;;;;;5053889;28;20476;-74
2021/01/12 06:19:18;;;;;;;5.13;4.30;;;;;;;;;;5055021;28;20461;-73
2021/01/12 06:22:08;;;;;;;9.37;5.03;;;;;;;;;;5060602;28;20461;-74
2021/01/12 06:24:41;;;;;;;7.40;4.30;;;;;;;;;;5075164;28;20509;-74
2021/01/12 06:27:09;;;;;;;5.67;4.53;;;;;;;;;;5076532;28;20453;-72
2021/01/12 06:29:36;;;;;;;5.97;4.97;;;;;;;;;;5078480;28;20449;-74
2021/01/12 06:32:04;;;;;;;7.50;4.80;;;;;;;;;;5077876;28;20457;-74
2021/01/12 06:34:32;;;;;;;6.00;4.50;;;;;;;;;;5077632;28;20727;-74
2021/01/12 06:37:01;;;;;;;5.00;3.30;;;;;;;;;;5078433;28;20488;-74
2021/01/12 06:39:31;;;;;;;7.67;5.23;;;;;;;;;;5077835;28;20660;-74
2021/01/12 06:41:58;;;;;;;7.37;5.67;;;;;;;;;;5077459;28;20456;-74
2021/01/12 06:44:27;;;;;;;5.30;3.90;;;;;;;;;;5077642;28;20478;-73
2021/01/12 06:46:55;;;;;;;6.97;4.60;;;;;;;;;;5078190;28;20726;-74
2021/01/12 06:49:24;;;;;;;6.63;4.07;;;;;;;;;;5078219;28;20540;-74
2021/01/12 06:52:02;;;;;;;5.00;4.17;;;;;;;;;;5078157;28;20463;-74
2021/01/12 06:54:33;;;;;;;4.83;3.33;;;;;;;;;;5077000;28;20449;-74
2021/01/12 06:57:02;;;;;;;4.50;2.60;;;;;;;;;;5076969;28;20519;-74
2021/01/12 06:59:36;;;;;;;4.30;2.80;;;;;;;;;;5077383;28;20871;-73
2021/01/12 07:02:10;;;;;;;4.30;2.87;;;;;;;;;;5077988;28;21142;-73
2021/01/12 07:04:38;;;;;;;3.23;2.30;;;;;;;;;;5077774;28;20462;-74
2021/01/12 07:07:07;;;;;;;3.80;2.43;;;;;;;;;;5058491;28;20461;-74
2021/01/12 07:09:45;;;;;;;3.13;1.90;;;;;;;;;;5070505;28;20541;-74
2021/01/12 07:12:24;;;;;;;4.37;2.73;;;;;;;;;;5073531;28;20815;-74
2021/01/12 07:14:59;;;;;;;5.50;3.60;;;;;;;;;;5065520;28;20535;-74
2021/01/12 07:17:28;;;;;;;3.30;1.47;;;;;;;;;;5076904;28;20519;-73
2021/01/12 07:20:09;;;;;;;4.27;3.27;;;;;;;;;;5076936;28;20532;-73
2021/01/12 07:22:38;;;;;;;6.07;2.97;;;;;;;;;;5078261;28;20487;-74
2021/01/12 07:25:07;;;;;;;4.33;2.60;;;;;;;;;;5077261;28;20448;-73
2021/01/12 07:27:35;;;;;;;5.07;2.77;;;;;;;;;;5078220;28;20821;-73
2021/01/12 07:30:07;;;;;;;3.10;1.87;;;;;;;;;;5077904;28;20481;-73
2021/01/12 07:32:35;;;;;;;6.63;2.50;;;;;;;;;;5076392;28;20492;-73
2021/01/12 07:35:10;;;;;;;4.27;2.10;;;;;;;;;;5076292;28;20808;-73
2021/01/12 07:37:40;;;;;;;5.47;2.60;;;;;;;;;;5076154;28;20488;-73
2021/01/12 07:40:09;;;;;;;4.33;2.10;;;;;;;;;;5076541;28;20453;-73
2021/01/12 07:42:37;;;;;;;5.40;2.70;;;;;;;;;;5076715;28;20483;-74
2021/01/12 07:45:05;;;;;;;2.60;1.27;;;;;;;;;;5074858;28;20499;-74
2021/01/12 07:47:33;;;;;;;2.20;1.20;;;;;;;;;;5076808;28;20453;-73
2021/01/12 07:50:01;;;;;;;1.63;0.80;;;;;;;;;;5076642;28;20464;-73
2021/01/12 07:52:28;;;;;;;2.80;0.90;;;;;;;;;;5076452;28;20518;-74
2021/01/12 07:54:57;;;;;;;1.40;0.60;;;;;;;;;;5076164;28;20545;-75
2021/01/12 07:57:27;;;;;;;1.40;0.50;;;;;;;;;;5075624;28;20476;-75
2021/01/12 07:59:54;;;;;;;4.90;4.37;;;;;;;;;;5075500;28;20448;-74
2021/01/12 08:02:26;;;;;;;1.40;0.50;;;;;;;;;;5075789;28;20489;-74
2021/01/12 08:04:53;;;;;;;2.43;0.53;;;;;;;;;;5076125;28;20452;-74
2021/01/12 08:07:26;;;;;;;1.97;0.50;;;;;;;;;;5077232;28;20453;-74
2021/01/12 08:09:55;;;;;;;2.03;0.93;;;;;;;;;;5076261;28;20461;-74
2021/01/12 08:12:26;;;;;;;6.90;0.90;;;;;;;;;;5076166;28;20524;-74
2021/01/12 08:14:57;;;;;;;4.30;0.70;;;;;;;;;;5075877;28;20484;-74
2021/01/12 08:17:27;;;;;;;2.73;0.83;;;;;;;;;;5075926;28;20932;-73
2021/01/12 08:19:55;;;;;;;2.87;0.80;;;;;;;;;;5075075;28;20540;-74
2021/01/12 08:22:23;;;;;;;1.90;0.63;;;;;;;;;;5075519;28;20520;-73
2021/01/12 08:24:50;;;;;;;2.50;0.83;;;;;;;;;;5075789;28;20457;-73
2021/01/12 08:27:22;;;;;;;2.40;0.70;;;;;;;;;;5076860;28;20637;-74
2021/01/12 08:29:51;;;;;;;3.00;0.70;;;;;;;;;;5075350;28;20456;-73
2021/01/12 08:32:22;;;;;;;3.03;0.80;;;;;;;;;;5076131;28;20555;-74
2021/01/12 08:34:57;;;;;;;4.33;1.73;;;;;;;;;;5075995;28;20445;-73
2021/01/12 08:37:33;;;;;;;4.33;0.80;;;;;;;;;;5075183;28;20479;-74
2021/01/12 08:40:04;;;;;;;3.03;0.97;;;;;;;;;;5075088;28;20448;-77
2021/01/12 08:42:33;;;;;;;3.67;0.90;;;;;;;;;;5075668;28;20464;-74
2021/01/12 08:45:17;;;;;;;3.00;0.80;;;;;;;;;;5075963;28;20456;-74
2021/01/12 08:47:46;;;;;;;2.53;1.00;;;;;;;;;;5074911;28;20545;-74
2021/01/12 08:50:16;;;;;;;3.87;1.20;;;;;;;;;;5075679;28;20464;-74
2021/01/12 08:55:36;;;;;;;2.43;0.77;;;;;;;;;;5075772;28;20440;-74
2021/01/12 08:58:06;;;;;;;4.47;0.90;;;;;;;;;;5076929;28;20515;-74
2021/01/12 09:00:35;;;;;;;2.27;0.90;;;;;;;;;;5075214;28;20719;-74
2021/01/12 09:03:04;;;;;;;1.90;0.87;;;;;;;;;;5074906;28;20451;-74
2021/01/12 09:05:32;;;;;;;2.80;1.00;;;;;;;;;;5075018;28;20536;-74
2021/01/12 09:08:00;;;;;;;3.00;0.87;;;;;;;;;;5075239;28;20501;-74
2021/01/12 09:10:28;;;;;;;1.83;0.70;;;;;;;;;;5073480;28;20477;-74
2021/01/12 09:12:56;;;;;;;1.30;0.50;;;;;;;;;;5073297;28;20534;-74
2021/01/12 09:15:27;;;;;;;3.80;0.90;;;;;;;;;;5074067;28;20438;-74
2021/01/12 09:18:19;;;;;;;3.30;1.73;;;;;;;;;;5073856;28;20484;-74
2021/01/12 09:20:54;;;;;;;7.50;1.03;;;;;;;;;;5074896;28;20515;-73
2021/01/12 09:23:27;;;;;;;7.13;1.67;;;;;;;;;;5075060;28;20502;-73
2021/01/12 09:25:55;;;;;;;5.33;2.50;;;;;;;;;;5075247;28;20461;-73
2021/01/12 09:28:26;;;;;;;8.80;3.20;;;;;;;;;;5075344;28;20448;-74
2021/01/12 09:31:17;;;;;;;6.03;2.97;;;;;;;;;;5075158;28;20513;-73
2021/01/12 09:33:47;;;;;;;12.20;7.03;;;;;;;;;;5075480;28;20544;-73
2021/01/12 09:36:15;;;;;;;8.47;2.70;;;;;;;;;;5074402;28;20533;-73
2021/01/12 09:38:43;;;;;;;4.63;1.40;;;;;;;;;;5074942;28;20921;-73
2021/01/12 09:41:12;;;;;;;10.57;4.83;;;;;;;;;;5073549;28;20457;-73
2021/01/12 09:43:39;;;;;;;8.43;1.73;;;;;;;;;;5074137;28;20494;-73
2021/01/12 09:46:15;;;;;;;4.50;1.50;;;;;;;;;;5073250;28;20499;-74
2021/01/12 09:48:43;;;;;;;2.73;1.00;;;;;;;;;;5074866;28;20548;-73
2021/01/12 09:51:12;;;;;;;6.67;1.80;;;;;;;;;;5074192;28;20461;-73
2021/01/12 09:53:40;;;;;;;4.53;2.20;;;;;;;;;;5074059;28;21059;-73
2021/01/12 09:56:11;;;;;;;9.23;3.37;;;;;;;;;;5076093;28;20467;-74
2021/01/12 09:58:39;;;;;;;6.07;1.97;;;;;;;;;;5074434;28;20492;-73
2021/01/12 10:01:09;;;;;;;4.50;1.20;;;;;;;;;;5075113;28;20456;-73
2021/01/12 10:03:38;;;;;;;5.67;3.10;;;;;;;;;;5078110;28;20471;-74
2021/01/12 10:06:16;;;;;;;5.17;2.93;;;;;;;;;;5078345;28;20441;-73
2021/01/12 10:08:46;;;;;;;6.53;1.83;;;;;;;;;;5072687;28;20446;-71
2021/01/12 10:11:17;;;;;;;3.73;1.87;;;;;;;;;;5077431;28;20570;-72
2021/01/12 10:13:46;;;;;;;3.50;1.50;;;;;;;;;;5076977;28;20453;-73
2021/01/12 10:16:24;;;;;;;3.27;1.10;;;;;;;;;;5078810;28;20944;-73
2021/01/12 10:18:55;;;;;;;4.80;1.60;;;;;;;;;;5079032;28;20771;-72
2021/01/12 10:21:24;;;;;;;6.83;1.03;;;;;;;;;;5079369;28;20461;-73
2021/01/12 10:23:54;;;;;;;5.23;1.30;;;;;;;;;;5078078;28;20552;-72
2021/01/12 10:26:22;;;;;;;3.27;1.13;;;;;;;;;;5078795;28;20640;-72
2021/01/12 10:28:49;;;;;;;3.10;0.97;;;;;;;;;;5079001;28;20445;-72
2021/01/12 10:31:20;;;;;;;3.20;1.17;;;;;;;;;;5077382;28;20456;-73
2021/01/12 10:33:48;;;;;;;3.63;1.57;;;;;;;;;;5079844;28;20888;-73
2021/01/12 10:36:17;;;;;;;5.80;1.77;;;;;;;;;;5078347;28;20449;-73
2021/01/12 10:38:45;;;;;;;5.67;1.07;;;;;;;;;;5080047;28;20507;-73
2021/01/12 10:41:21;;;;;;;11.00;2.20;;;;;;;;;;5079601;28;20532;-73
2021/01/12 10:44:03;;;;;;;3.70;1.50;;;;;;;;;;5078863;28;20550;-73
2021/01/12 10:46:31;;;;;;;6.57;1.47;;;;;;;;;;5080391;28;20475;-72
2021/01/12 10:48:59;;;;;;;8.83;1.70;;;;;;;;;;5080643;28;21024;-72
2021/01/12 10:51:30;;;;;;;5.30;1.23;;;;;;;;;;5078415;28;20518;-72
2021/01/12 10:54:01;;;;;;;8.80;2.10;;;;;;;;;;5080458;28;20520;-72
2021/01/12 10:56:40;;;;;;;5.37;1.40;;;;;;;;;;5078310;28;20460;-73
2021/01/12 10:59:09;;;;;;;6.73;1.30;;;;;;;;;;5079362;28;20481;-72
2021/01/12 11:01:48;;;;;;;3.00;1.40;;;;;;;;;;5080158;28;20510;-72
2021/01/12 11:04:15;;;;;;;3.97;1.53;;;;;;;;;;5078521;28;20509;-71
2021/01/12 11:06:44;;;;;;;2.80;1.27;;;;;;;;;;5077431;28;20491;-71
2021/01/12 11:09:11;;;;;;;6.13;1.00;;;;;;;;;;5078516;28;20532;-71
2021/01/12 11:11:40;;;;;;;4.50;1.90;;;;;;;;;;5078059;28;20865;-70
2021/01/12 11:14:18;;;;;;;4.50;1.43;;;;;;;;;;5075697;28;20483;-71
2021/01/12 11:16:50;;;;;;;4.47;1.90;;;;;;;;;;5078137;28;20878;-71
2021/01/12 11:19:29;;;;;;;4.60;1.20;;;;;;;;;;5078338;28;20473;-71
2021/01/12 11:28:01;;;;;;;5.63;1.50;;;;;;;;;;5070937;28;20458;-71
2021/01/12 11:30:38;;;;;;;6.10;1.10;;;;;;;;;;5081621;28;20892;-70
2021/01/12 11:33:17;;;;;;;5.37;1.23;;;;;;;;;;5079069;28;20445;-70
2021/01/12 11:35:59;;;;;;;2.90;1.10;;;;;;;;;;5078721;28;20503;-70
2021/01/12 11:41:28;;;;;;;3.60;0.80;;;;;;;;;;5077185;28;20459;-70
2021/01/12 11:43:58;;;;;;;6.00;1.27;;;;;;;;;;5078972;28;20874;-70
2021/01/12 11:46:37;;;;;;;3.37;1.10;;;;;;;;;;5078021;28;20467;-70
2021/01/12 11:49:12;;;;;;;3.00;1.10;;;;;;;;;;5077703;28;20437;-71
2021/01/12 11:51:44;;;;;;;6.90;1.27;;;;;;;;;;5078261;28;20464;-71
2021/01/12 11:54:19;;;;;;;3.00;1.23;;;;;;;;;;5077217;28;20440;-71
2021/01/12 11:56:56;;;;;;;4.33;0.90;;;;;;;;;;5076720;28;20456;-71
2021/01/12 11:59:34;;;;;;;3.30;1.10;;;;;;;;;;5078219;28;20579;-70
2021/01/12 12:02:24;;;;;;;5.53;1.57;;;;;;;;;;5078236;28;20817;-72
2021/01/12 12:05:04;;;;;;;4.00;1.57;;;;;;;;;;5075277;28;20471;-72
2021/01/12 12:07:45;;;;;;;4.80;0.90;;;;;;;;;;5077725;28;21020;-71
2021/01/12 12:10:14;;;;;;;3.43;0.80;;;;;;;;;;5077560;28;20864;-71
2021/01/12 12:15:41;;;;;;;2.77;1.00;;;;;;;;;;5076462;28;20473;-70
2021/01/12 12:18:22;;;;;;;2.13;0.87;;;;;;;;;;5078511;28;20490;-70
2021/01/12 12:21:04;;;;;;;8.13;1.00;;;;;;;;;;5078860;28;20453;-70
2021/01/12 12:23:45;;;;;;;4.67;1.10;;;;;;;;;;5077935;28;20488;-71
2021/01/12 12:26:21;;;;;;;5.07;1.27;;;;;;;;;;5077826;28;20445;-71
2021/01/12 12:28:57;;;;;;;2.53;0.70;;;;;;;;;;5074739;28;20441;-72
2021/01/12 12:31:42;;;;;;;2.67;0.77;;;;;;;;;;5077983;28;20472;-72
2021/01/12 12:34:23;;;;;;;5.60;0.90;;;;;;;;;;5076755;28;20869;-72
2021/01/12 12:37:03;;;;;;;2.63;1.10;;;;;;;;;;5076657;28;20465;-71
2021/01/12 12:39:49;;;;;;;12.03;1.30;;;;;;;;;;5076601;28;20506;-70
2021/01/12 12:42:17;;;;;;;7.83;1.10;;;;;;;;;;5076903;28;20464;-72
2021/01/12 12:45:01;;;;;;;5.60;1.17;;;;;;;;;;5076370;28;20483;-71
2021/01/12 12:47:42;;;;;;;5.20;0.97;;;;;;;;;;5076773;28;20465;-71
2021/01/12 12:50:19;;;;;;;3.87;0.80;;;;;;;;;;5077644;28;20437;-72
2021/01/12 12:53:02;;;;;;;6.50;1.00;;;;;;;;;;5076732;28;20452;-71
2021/01/12 12:55:45;;;;;;;8.90;2.30;;;;;;;;;;5066109;28;20521;-71
2021/01/12 12:58:24;;;;;;;3.47;1.03;;;;;;;;;;5075323;28;20477;-72
2021/01/12 13:00:59;;;;;;;8.60;1.53;;;;;;;;;;5076754;28;20749;-71
2021/01/12 13:06:21;;;;;;;5.00;0.90;;;;;;;;;;5063844;28;20440;-71
2021/01/12 13:09:08;;;;;;;4.40;0.90;;;;;;;;;;5075907;28;20477;-71
2021/01/12 13:11:53;;;;;;;4.70;1.07;;;;;;;;;;5075437;28;20459;-71
2021/01/12 13:14:41;;;;;;;8.73;1.60;;;;;;;;;;5075739;28;20453;-71
2021/01/12 13:17:29;;;;;;;4.27;0.97;;;;;;;;;;5076732;28;20463;-71
2021/01/12 13:20:15;;;;;;;3.73;1.13;;;;;;;;;;5075216;28;20454;-71
2021/01/12 13:23:00;;;;;;;3.47;1.07;;;;;;;;;;5077789;28;20461;-71
2021/01/12 13:25:50;;;;;;;3.90;1.03;;;;;;;;;;5077161;28;20455;-72
2021/01/12 13:31:19;;;;;;;4.73;0.83;;;;;;;;;;5076502;28;20738;-73
2021/01/12 13:34:13;;;;;;;5.93;1.53;;;;;;;;;;5076471;28;20496;-72
2021/01/12 13:37:05;;;;;;;7.33;1.03;;;;;;;;;;5075423;28;21075;-72
2021/01/12 13:39:46;;;;;;;7.90;1.47;;;;;;;;;;5077318;28;20476;-72
2021/01/12 13:45:17;;;;;;;7.33;1.20;;;;;;;;;;5045004;28;20463;-70
2021/01/12 13:47:51;;;;;;;4.37;1.00;;;;;;;;;;5074640;28;20445;-71
2021/01/12 13:50:26;;;;;;;3.67;0.90;;;;;;;;;;5075829;28;20483;-71
2021/01/12 13:53:03;;;;;;;1.87;0.80;;;;;;;;;;5075468;28;20459;-71
2021/01/12 13:55:59;;;;;;;3.50;1.10;;;;;;;;;;5076025;28;20429;-71
2021/01/12 13:58:33;;;;;;;9.53;2.40;;;;;;;;;;5074968;28;20516;-71
2021/01/12 14:04:07;;;;;;;4.93;1.00;;;;;;;;;;5056134;28;20449;-71
2021/01/12 14:06:54;;;;;;;11.60;1.17;;;;;;;;;;5056513;28;20448;-71
2021/01/12 14:09:33;;;;;;;7.07;1.97;;;;;;;;;;5055801;28;20453;-72
2021/01/12 14:12:14;;;;;;;7.77;2.60;;;;;;;;;;5061899;28;20776;-71
2021/01/12 14:14:49;;;;;;;3.60;1.00;;;;;;;;;;5075781;28;21022;-71
2021/01/12 14:17:55;;;;;;;4.07;1.43;;;;;;;;;;5076502;28;20455;-72
2021/01/12 14:20:37;;;;;;;7.10;1.10;;;;;;;;;;5014358;28;20459;-72
2021/01/12 14:23:13;;;;;;;5.97;1.13;;;;;;;;;;5012943;28;20462;-72
2021/01/12 14:26:06;;;;;;;;;;;;;;;;;;;;;
2021/01/12 14:28:55;;;;;;;5.10;1.17;;;;;;;;;;5073627;28;20549;-72
2021/01/12 14:31:31;;;;;;;4.33;1.00;;;;;;;;;;5076632;28;20460;-73
2021/01/12 14:34:34;;;;;;;;;;;;;;;;;;;;;
2021/01/12 14:37:22;;;;;;;2.10;0.87;;;;;;;;;;5070240;28;20719;-71
2021/01/12 14:40:11;;;;;;;8.03;1.80;;;;;;;;;;5076777;28;20506;-71
2021/01/12 14:43:05;;;;;;;5.83;0.90;;;;;;;;;;5075142;28;20455;-72
2021/01/12 14:48:44;;;;;;;9.73;1.90;;;;;;;;;;5071761;28;20437;-72
2021/01/12 14:51:13;;;;;;;9.17;1.27;;;;;;;;;;5063858;28;20450;-72
2021/01/12 14:53:43;;;;;;;2.20;0.90;;;;;;;;;;5058315;28;20458;-73
2021/01/12 14:56:37;;;;;;;5.40;1.13;;;;;;;;;;5058009;28;20820;-72
2021/01/12 14:59:06;;;;;;;3.27;1.20;;;;;;;;;;5066016;28;20892;-71
2021/01/12 15:04:54;;;;;;;6.60;1.53;;;;;;;;;;5043656;28;20940;-73
2021/01/12 15:07:52;;;;;;;;;;;;;;;;;;;;;
2021/01/12 15:10:20;;;;;;;6.77;0.90;;;;;;;;;;5056869;28;20482;-72
2021/01/12 15:12:50;;;;;;;5.70;1.37;;;;;;;;;;5065186;28;20717;-72
2021/01/12 15:15:37;;;;;;;3.37;1.13;;;;;;;;;;5078620;28;20445;-72
2021/01/12 15:18:17;;;;;;;3.27;1.27;;;;;;;;;;5075976;28;20481;-72
2021/01/12 15:20:56;;;;;;;5.60;1.10;;;;;;;;;;5078567;28;20869;-72
2021/01/12 15:23:53;;;;;;;5.03;1.33;;;;;;;;;;5078266;28;21119;-71
2021/01/12 15:26:20;;;;;;;6.00;1.40;;;;;;;;;;5075508;28;20544;-71
2021/01/12 15:28:52;;;;;;;6.83;1.43;;;;;;;;;;5076775;28;20547;-71
2021/01/12 15:31:20;;;;;;;6.50;1.20;;;;;;;;;;5077718;28;20449;-73
2021/01/12 15:33:48;;;;;;;3.93;1.20;;;;;;;;;;5074839;28;20510;-73
2021/01/12 15:36:16;;;;;;;5.77;1.20;;;;;;;;;;5072065;28;20886;-73
2021/01/12 15:38:45;;;;;;;4.60;1.00;;;;;;;;;;5077504;28;20520;-74
2021/01/12 15:41:13;;;;;;;2.60;0.80;;;;;;;;;;5077219;28;20453;-73
2021/01/12 15:44:03;;;;;;;;;;;;;;;;;;;;;
2021/01/12 15:46:37;;;;;;;1.50;0.70;;;;;;;;;;5076267;28;20452;-73